Time;durP1;ratioP1;P1;durP2;ratioP2;P2;SDS_P1;SDS_P2;PMS_P1;PMS_P2;Temp;Humidity;BMP_temperature;BMP_pressure;BME280_temperature;BME280_humidity;BME280_pressure;Samples;Min_cycle;Max_cycle;Signal;HPM_P1;HPM_P2
2022/03/18 00:00:40;;;;;;;;;15.50;13.25;;;;;;;;5096537;27;45358;-72
2022/03/18 00:03:05;;;;;;;;;20.75;16.50;;;;;;;;5095621;27;46070;-71
2022/03/18 00:05:32;;;;;;;;;16.00;15.50;;;;;;;;5096097;27;45523;-71
2022/03/18 00:07:57;;;;;;;;;17.50;13.75;;;;;;;;5095733;27;46519;-73
2022/03/18 00:10:23;;;;;;;;;16.25;15.00;;;;;;;;5096370;27;45393;-72
2022/03/18 00:12:51;;;;;;;;;16.00;13.75;;;;;;;;5096558;27;45518;-72
2022/03/18 00:15:16;;;;;;;;;13.00;13.00;;;;;;;;5094981;27;45343;-72
2022/03/18 00:17:42;;;;;;;;;17.50;16.00;;;;;;;;5095647;27;45459;-72
2022/03/18 00:20:08;;;;;;;;;18.00;17.25;;;;;;;;5095561;27;45659;-73
2022/03/18 00:22:33;;;;;;;;;19.25;17.25;;;;;;;;5095070;27;46241;-73
2022/03/18 00:24:59;;;;;;;;;15.25;14.25;;;;;;;;5095340;27;45279;-74
2022/03/18 00:27:26;;;;;;;;;14.25;12.50;;;;;;;;5095726;27;45541;-73
2022/03/18 00:29:51;;;;;;;;;15.00;15.00;;;;;;;;5095660;27;45543;-74
2022/03/18 00:32:16;;;;;;;;;17.25;15.75;;;;;;;;5095086;27;49234;-73
2022/03/18 00:34:41;;;;;;;;;21.25;18.50;;;;;;;;5095209;27;45559;-73
2022/03/18 00:37:07;;;;;;;;;25.25;19.25;;;;;;;;5095397;27;45334;-73
2022/03/18 00:39:32;;;;;;;;;14.50;14.25;;;;;;;;5094589;27;45600;-73
2022/03/18 00:41:57;;;;;;;;;20.75;14.00;;;;;;;;5095531;27;47411;-74
2022/03/18 00:44:25;;;;;;;;;15.00;10.75;;;;;;;;5095460;27;45556;-73
2022/03/18 00:46:50;;;;;;;;;19.75;16.25;;;;;;;;5094767;27;45487;-73
2022/03/18 00:52:04;;;;;;;;;22.00;18.75;;;;;;;;5095855;27;45377;-73
2022/03/18 00:54:30;;;;;;;;;14.75;14.75;;;;;;;;5095484;27;45615;-73
2022/03/18 00:56:56;;;;;;;;;18.75;16.25;;;;;;;;5095245;27;45387;-73
2022/03/18 00:59:21;;;;;;;;;14.25;13.75;;;;;;;;5092906;27;45489;-73
2022/03/18 01:01:46;;;;;;;;;16.75;16.75;;;;;;;;5095042;27;45960;-73
2022/03/18 01:04:11;;;;;;;;;20.75;17.25;;;;;;;;5095582;27;45425;-73
2022/03/18 01:06:36;;;;;;;;;20.00;17.25;;;;;;;;5095415;27;45520;-72
2022/03/18 01:09:02;;;;;;;;;24.25;16.00;;;;;;;;5095736;27;45509;-73
2022/03/18 01:11:28;;;;;;;;;17.00;16.00;;;;;;;;5096088;27;46613;-73
2022/03/18 01:13:54;;;;;;;;;23.25;19.25;;;;;;;;5095081;27;45392;-73
2022/03/18 01:16:19;;;;;;;;;18.00;15.50;;;;;;;;5095574;27;45360;-73
2022/03/18 01:18:44;;;;;;;;;16.50;12.50;;;;;;;;5096426;27;45402;-73
2022/03/18 01:21:09;;;;;;;;;18.00;16.25;;;;;;;;5095532;27;45909;-73
2022/03/18 01:23:34;;;;;;;;;24.25;20.00;;;;;;;;5095373;27;45503;-72
2022/03/18 01:26:00;;;;;;;;;23.75;21.25;;;;;;;;5095602;27;45376;-73
2022/03/18 01:28:27;;;;;;;;;22.00;18.50;;;;;;;;5095739;27;45299;-73
2022/03/18 01:30:52;;;;;;;;;23.25;17.75;;;;;;;;5093235;27;46143;-73
2022/03/18 01:33:17;;;;;;;;;21.50;21.50;;;;;;;;5095265;27;45391;-73
2022/03/18 01:35:42;;;;;;;;;23.50;22.00;;;;;;;;5095280;27;45359;-73
2022/03/18 01:38:08;;;;;;;;;23.00;23.00;;;;;;;;5095497;27;45445;-73
2022/03/18 01:40:33;;;;;;;;;21.00;18.25;;;;;;;;5095437;27;48026;-73
2022/03/18 01:42:58;;;;;;;;;25.25;20.00;;;;;;;;5095962;27;45263;-73
2022/03/18 01:45:24;;;;;;;;;22.50;21.25;;;;;;;;5092656;27;45274;-73
2022/03/18 01:47:49;;;;;;;;;31.75;27.00;;;;;;;;5095489;27;45520;-73
2022/03/18 01:50:14;;;;;;;;;26.50;22.25;;;;;;;;5094722;27;46520;-73
2022/03/18 01:52:40;;;;;;;;;31.25;28.50;;;;;;;;5078863;27;45454;-73
2022/03/18 01:55:06;;;;;;;;;22.00;17.75;;;;;;;;5096009;27;45293;-73
2022/03/18 01:57:31;;;;;;;;;33.75;26.50;;;;;;;;5095107;27;45465;-73
2022/03/18 01:59:57;;;;;;;;;27.00;21.25;;;;;;;;5094365;27;46536;-73
2022/03/18 02:02:23;;;;;;;;;25.50;23.75;;;;;;;;5094838;27;45791;-73
2022/03/18 02:04:48;;;;;;;;;32.00;27.75;;;;;;;;5094950;27;45358;-73
2022/03/18 02:07:14;;;;;;;;;33.25;28.00;;;;;;;;5095218;27;45639;-73
2022/03/18 02:09:39;;;;;;;;;31.00;29.75;;;;;;;;5095108;27;46456;-73
2022/03/18 02:12:05;;;;;;;;;25.50;24.75;;;;;;;;5095110;27;47928;-73
2022/03/18 02:14:31;;;;;;;;;29.50;26.75;;;;;;;;5094398;27;45637;-72
2022/03/18 02:16:56;;;;;;;;;26.50;26.50;;;;;;;;5095204;27;45332;-73
2022/03/18 02:19:21;;;;;;;;;39.00;31.75;;;;;;;;5094759;27;46115;-73
2022/03/18 02:21:48;;;;;;;;;28.75;26.25;;;;;;;;5095247;27;45460;-73
2022/03/18 02:24:14;;;;;;;;;26.00;25.00;;;;;;;;5092487;27;45494;-73
2022/03/18 02:26:39;;;;;;;;;34.75;31.00;;;;;;;;5094938;27;45718;-73
2022/03/18 02:29:04;;;;;;;;;31.50;26.75;;;;;;;;5094362;27;45411;-73
2022/03/18 02:31:30;;;;;;;;;29.00;27.25;;;;;;;;5094775;27;45715;-73
2022/03/18 02:33:55;;;;;;;;;37.25;32.75;;;;;;;;5095270;27;45411;-73
2022/03/18 02:36:21;;;;;;;;;34.50;27.00;;;;;;;;5094728;27;45332;-73
2022/03/18 02:38:46;;;;;;;;;41.50;34.75;;;;;;;;5094458;27;46304;-73
2022/03/18 02:41:14;;;;;;;;;40.50;34.75;;;;;;;;5094389;27;45287;-73
2022/03/18 02:43:39;;;;;;;;;29.00;25.25;;;;;;;;5094526;27;45395;-73
2022/03/18 02:46:05;;;;;;;;;51.75;38.75;;;;;;;;5095283;27;45286;-73
2022/03/18 02:48:30;;;;;;;;;43.00;34.25;;;;;;;;5094573;27;45846;-72
2022/03/18 02:50:55;;;;;;;;;41.00;33.75;;;;;;;;5094184;27;45334;-73
2022/03/18 02:53:21;;;;;;;;;38.50;30.50;;;;;;;;5094172;27;45237;-72
2022/03/18 02:55:46;;;;;;;;;40.50;32.75;;;;;;;;5094853;27;45440;-73
2022/03/18 02:58:11;;;;;;;;;33.50;33.50;;;;;;;;5094856;27;45321;-73
2022/03/18 03:00:36;;;;;;;;;37.75;34.00;;;;;;;;5095194;27;47976;-73
2022/03/18 03:03:02;;;;;;;;;39.25;33.75;;;;;;;;5098147;27;45355;-73
2022/03/18 03:08:12;;;;;;;;;35.50;32.75;;;;;;;;5097807;27;45245;-73
2022/03/18 03:10:38;;;;;;;;;43.25;36.00;;;;;;;;5097490;27;45470;-72
2022/03/18 03:13:06;;;;;;;;;43.75;34.50;;;;;;;;5098177;27;45210;-72
2022/03/18 03:15:32;;;;;;;;;41.25;36.25;;;;;;;;5097206;27;46056;-73
2022/03/18 03:17:57;;;;;;;;;34.50;32.50;;;;;;;;5097297;27;46326;-73
2022/03/18 03:20:22;;;;;;;;;41.50;34.75;;;;;;;;5097436;27;45343;-72
2022/03/18 03:22:48;;;;;;;;;36.25;31.00;;;;;;;;5097650;27;45429;-72
2022/03/18 03:25:13;;;;;;;;;34.75;32.50;;;;;;;;5097470;27;45409;-72
2022/03/18 03:27:38;;;;;;;;;36.50;30.50;;;;;;;;5097738;27;46081;-72
2022/03/18 03:30:04;;;;;;;;;35.50;31.75;;;;;;;;5097259;27;45330;-72
2022/03/18 03:32:30;;;;;;;;;31.25;27.75;;;;;;;;5097411;27;45467;-72
2022/03/18 03:34:57;;;;;;;;;36.50;29.75;;;;;;;;5097230;27;45441;-72
2022/03/18 03:37:23;;;;;;;;;31.50;26.00;;;;;;;;5097349;27;46675;-73
2022/03/18 03:39:48;;;;;;;;;34.25;31.00;;;;;;;;5097279;27;45231;-73
2022/03/18 03:42:13;;;;;;;;;31.25;29.00;;;;;;;;5096963;27;45365;-73
2022/03/18 03:44:38;;;;;;;;;32.25;26.25;;;;;;;;5097081;27;45286;-73
2022/03/18 03:47:04;;;;;;;;;31.25;27.75;;;;;;;;5097326;27;45989;-73
2022/03/18 03:49:29;;;;;;;;;29.75;26.00;;;;;;;;5097274;27;45499;-73
2022/03/18 03:51:54;;;;;;;;;30.50;26.75;;;;;;;;5095987;27;45687;-72
2022/03/18 03:54:19;;;;;;;;;38.00;31.75;;;;;;;;5094199;27;45540;-80
2022/03/18 03:56:44;;;;;;;;;34.75;29.75;;;;;;;;5097112;27;45592;-80
2022/03/18 03:59:10;;;;;;;;;4.50;3.00;;;;;;;;5097154;27;45385;-80
2022/03/18 04:01:35;;;;;;;;;27.25;25.00;;;;;;;;5097385;27;45401;-80
2022/03/18 04:04:00;;;;;;;;;29.75;28.00;;;;;;;;5097857;27;45312;-80
2022/03/18 04:06:26;;;;;;;;;31.25;27.25;;;;;;;;5096909;27;45431;-80
2022/03/18 04:08:51;;;;;;;;;38.50;33.00;;;;;;;;5096773;27;45488;-80
2022/03/18 04:11:16;;;;;;;;;26.50;25.50;;;;;;;;5097313;27;45398;-80
2022/03/18 04:13:41;;;;;;;;;31.25;29.25;;;;;;;;5097118;27;45329;-80
2022/03/18 04:16:06;;;;;;;;;33.00;31.00;;;;;;;;5092706;27;45443;-80
2022/03/18 04:18:32;;;;;;;;;27.75;24.25;;;;;;;;5096619;27;45459;-80
2022/03/18 04:20:57;;;;;;;;;31.00;27.50;;;;;;;;5096682;27;45291;-80
2022/03/18 04:23:22;;;;;;;;;36.50;34.00;;;;;;;;5096112;27;45294;-80
2022/03/18 04:25:50;;;;;;;;;29.00;27.75;;;;;;;;5097305;27;45501;-81
2022/03/18 04:28:16;;;;;;;;;32.00;28.50;;;;;;;;5096673;27;45172;-81
2022/03/18 04:30:41;;;;;;;;;31.50;26.25;;;;;;;;5096881;27;45439;-81
2022/03/18 04:33:06;;;;;;;;;37.50;28.75;;;;;;;;5096415;27;45455;-81
2022/03/18 04:35:32;;;;;;;;;31.75;26.75;;;;;;;;5096386;27;46559;-81
2022/03/18 04:37:57;;;;;;;;;32.50;29.00;;;;;;;;5096445;27;45453;-81
2022/03/18 04:40:22;;;;;;;;;28.75;26.00;;;;;;;;5096622;27;45207;-81
2022/03/18 04:42:47;;;;;;;;;27.75;27.75;;;;;;;;5096582;27;45527;-81
2022/03/18 04:45:13;;;;;;;;;27.25;25.00;;;;;;;;5096080;27;46096;-81
2022/03/18 04:47:38;;;;;;;;;23.75;23.50;;;;;;;;5096444;27;45388;-81
2022/03/18 04:50:04;;;;;;;;;27.25;24.25;;;;;;;;5096391;27;45436;-82
2022/03/18 04:52:30;;;;;;;;;30.00;24.75;;;;;;;;5096026;27;45436;-81
2022/03/18 04:54:55;;;;;;;;;31.50;28.50;;;;;;;;5096684;27;46244;-80
2022/03/18 04:57:20;;;;;;;;;25.75;23.25;;;;;;;;5096086;27;45336;-81
2022/03/18 04:59:47;;;;;;;;;26.25;23.75;;;;;;;;5096239;27;49081;-80
2022/03/18 05:02:12;;;;;;;;;34.25;29.00;;;;;;;;5095965;27;45572;-81
2022/03/18 05:04:38;;;;;;;;;29.75;24.75;;;;;;;;5096155;27;46997;-82
2022/03/18 05:07:04;;;;;;;;;23.00;22.75;;;;;;;;5096435;27;45471;-82
2022/03/18 05:09:29;;;;;;;;;30.00;21.75;;;;;;;;5096137;27;45531;-81
2022/03/18 05:11:54;;;;;;;;;29.25;25.50;;;;;;;;5095922;27;45554;-82
2022/03/18 05:14:19;;;;;;;;;26.00;23.75;;;;;;;;5096968;27;46377;-80
2022/03/18 05:16:45;;;;;;;;;24.00;23.25;;;;;;;;5096596;27;45391;-81
2022/03/18 05:19:10;;;;;;;;;26.25;22.00;;;;;;;;5096691;27;45516;-81
2022/03/18 05:21:36;;;;;;;;;24.50;19.50;;;;;;;;5095551;27;45299;-82
2022/03/18 05:24:01;;;;;;;;;20.50;18.50;;;;;;;;5094755;27;45607;-79
2022/03/18 05:26:26;;;;;;;;;26.00;25.00;;;;;;;;5095742;27;45450;-80
2022/03/18 05:28:52;;;;;;;;;22.00;22.00;;;;;;;;5095653;27;45419;-79
2022/03/18 05:31:17;;;;;;;;;31.75;26.00;;;;;;;;5095946;27;45396;-81
2022/03/18 05:33:42;;;;;;;;;25.50;24.25;;;;;;;;5095591;27;46152;-83
2022/03/18 05:36:07;;;;;;;;;23.00;19.25;;;;;;;;5097478;27;45285;-82
2022/03/18 05:38:33;;;;;;;;;27.25;26.50;;;;;;;;5095704;27;45457;-81
2022/03/18 05:40:58;;;;;;;;;22.75;22.00;;;;;;;;5096143;27;45434;-82
2022/03/18 05:43:23;;;;;;;;;23.75;21.00;;;;;;;;5095298;27;45445;-81
2022/03/18 05:45:48;;;;;;;;;30.50;28.00;;;;;;;;5095802;27;45470;-82
2022/03/18 05:48:13;;;;;;;;;32.50;28.25;;;;;;;;5095034;27;45490;-81
2022/03/18 05:50:39;;;;;;;;;27.75;25.25;;;;;;;;5095462;27;45428;-82
2022/03/18 05:53:04;;;;;;;;;30.25;27.00;;;;;;;;5095273;27;46033;-81
2022/03/18 05:56:52;;;;;;;;;30.75;26.50;;;;;;;;5095500;27;45412;-82
2022/03/18 05:58:15;;;;;;;;;28.75;24.25;;;;;;;;5091494;27;45383;-80
2022/03/18 06:00:42;;;;;;;;;26.00;21.50;;;;;;;;5095374;27;45577;-81
2022/03/18 06:03:07;;;;;;;;;28.00;25.25;;;;;;;;5094987;27;45410;-81
2022/03/18 06:05:32;;;;;;;;;24.50;22.50;;;;;;;;5094306;27;45506;-81
2022/03/18 06:11:48;;;;;;;;;32.50;26.75;;;;;;;;5094333;27;45485;-76
2022/03/18 06:13:26;;;;;;;;;24.50;22.50;;;;;;;;5094947;27;45783;-82
2022/03/18 06:15:52;;;;;;;;;24.75;22.75;;;;;;;;5095526;27;45456;-82
2022/03/18 06:18:17;;;;;;;;;27.00;26.75;;;;;;;;5095020;27;45514;-83
2022/03/18 06:20:42;;;;;;;;;24.75;23.75;;;;;;;;5094058;27;45464;-83
2022/03/18 06:23:07;;;;;;;;;28.50;25.00;;;;;;;;5093870;27;46328;-76
2022/03/18 06:25:32;;;;;;;;;29.25;27.25;;;;;;;;5093797;27;45452;-80
2022/03/18 06:27:58;;;;;;;;;29.00;28.75;;;;;;;;5095417;27;45467;-82
2022/03/18 06:30:23;;;;;;;;;25.00;22.75;;;;;;;;5094496;27;45483;-76
2022/03/18 06:32:48;;;;;;;;;27.25;24.75;;;;;;;;5093207;27;45458;-77
2022/03/18 06:35:13;;;;;;;;;31.00;28.75;;;;;;;;5093558;27;45393;-77
2022/03/18 06:37:38;;;;;;;;;30.00;24.00;;;;;;;;5097418;27;45440;-76
2022/03/18 06:40:05;;;;;;;;;25.00;22.75;;;;;;;;5098039;27;45517;-77
2022/03/18 06:42:30;;;;;;;;;27.50;23.75;;;;;;;;5096864;27;46192;-77
2022/03/18 06:44:55;;;;;;;;;24.75;23.25;;;;;;;;5096588;27;45377;-78
2022/03/18 06:47:21;;;;;;;;;21.50;21.00;;;;;;;;5097831;27;45378;-77
2022/03/18 06:49:49;;;;;;;;;18.25;15.75;;;;;;;;5098048;27;45244;-76
2022/03/18 06:52:14;;;;;;;;;26.25;23.50;;;;;;;;5097516;27;47392;-75
2022/03/18 06:54:39;;;;;;;;;27.75;22.25;;;;;;;;5096843;27;45584;-78
2022/03/18 06:57:04;;;;;;;;;28.25;25.25;;;;;;;;5097040;27;45459;-77
2022/03/18 06:59:30;;;;;;;;;20.50;16.50;;;;;;;;5097111;27;45471;-74
2022/03/18 07:01:55;;;;;;;;;30.75;29.25;;;;;;;;5097405;27;46107;-76
2022/03/18 07:04:20;;;;;;;;;29.50;26.25;;;;;;;;5096539;27;45348;-76
2022/03/18 07:06:46;;;;;;;;;25.00;23.50;;;;;;;;5097128;27;45355;-76
2022/03/18 07:09:12;;;;;;;;;29.25;25.50;;;;;;;;5096952;27;45392;-78
2022/03/18 07:11:37;;;;;;;;;30.25;29.25;;;;;;;;5096494;27;45433;-77
2022/03/18 07:14:02;;;;;;;;;33.25;27.00;;;;;;;;5095215;27;45519;-75
2022/03/18 07:19:12;;;;;;;;;34.25;29.75;;;;;;;;5092308;27;45340;-78
2022/03/18 07:21:37;;;;;;;;;27.75;26.50;;;;;;;;5096410;27;46009;-78
2022/03/18 07:24:02;;;;;;;;;29.50;26.25;;;;;;;;5095835;27;45382;-77
2022/03/18 07:26:28;;;;;;;;;34.25;29.75;;;;;;;;5096547;27;47886;-77
2022/03/18 07:28:53;;;;;;;;;32.75;27.50;;;;;;;;5096684;27;45449;-75
2022/03/18 07:31:18;;;;;;;;;34.25;30.50;;;;;;;;5095553;27;45523;-77
2022/03/18 07:33:43;;;;;;;;;28.00;24.75;;;;;;;;5095968;27;46097;-77
2022/03/18 07:36:09;;;;;;;;;27.75;26.00;;;;;;;;5095854;27;45352;-77
2022/03/18 07:38:34;;;;;;;;;28.75;25.25;;;;;;;;5096288;27;45348;-76
2022/03/18 07:40:59;;;;;;;;;33.00;27.00;;;;;;;;5095633;27;45664;-77
2022/03/18 07:43:24;;;;;;;;;25.50;21.25;;;;;;;;5095339;27;47961;-76
2022/03/18 07:45:50;;;;;;;;;26.00;25.25;;;;;;;;5096793;27;45306;-76
2022/03/18 07:48:15;;;;;;;;;30.50;24.50;;;;;;;;5095118;27;45481;-77
2022/03/18 07:50:40;;;;;;;;;29.50;28.25;;;;;;;;5095785;27;45523;-76
2022/03/18 07:53:07;;;;;;;;;24.50;22.00;;;;;;;;5095279;27;45545;-77
2022/03/18 07:55:33;;;;;;;;;31.50;29.00;;;;;;;;5096398;27;45427;-76
2022/03/18 07:57:59;;;;;;;;;27.75;25.00;;;;;;;;5096770;27;45362;-78
2022/03/18 08:00:25;;;;;;;;;31.00;28.50;;;;;;;;5095664;27;45484;-78
2022/03/18 08:02:52;;;;;;;;;34.00;27.00;;;;;;;;5095297;27;45502;-77
2022/03/18 08:05:18;;;;;;;;;23.75;21.50;;;;;;;;5095846;27;46559;-76
2022/03/18 08:07:46;;;;;;;;;23.25;22.75;;;;;;;;5095386;27;45333;-77
2022/03/18 08:10:12;;;;;;;;;22.00;20.25;;;;;;;;5095918;27;46380;-77
2022/03/18 08:12:39;;;;;;;;;23.50;21.25;;;;;;;;5094062;27;45511;-78
2022/03/18 08:15:06;;;;;;;;;26.00;22.50;;;;;;;;5095549;27;45266;-76
2022/03/18 08:17:31;;;;;;;;;26.50;23.00;;;;;;;;5095496;27;45480;-78
2022/03/18 08:19:57;;;;;;;;;25.25;23.75;;;;;;;;5095810;27;45393;-79
2022/03/18 08:22:23;;;;;;;;;28.00;26.50;;;;;;;;5095531;27;45613;-78
2022/03/18 08:24:49;;;;;;;;;28.00;22.00;;;;;;;;5095549;27;45367;-79
2022/03/18 08:27:14;;;;;;;;;24.00;22.75;;;;;;;;5094838;27;45585;-79
2022/03/18 08:29:39;;;;;;;;;26.25;22.50;;;;;;;;5095325;27;45497;-78
2022/03/18 08:32:11;;;;;;;;;28.75;21.50;;;;;;;;5095181;27;45272;-77
2022/03/18 08:34:37;;;;;;;;;27.50;22.50;;;;;;;;5095348;27;45450;-78
2022/03/18 08:37:05;;;;;;;;;23.75;22.50;;;;;;;;5096916;27;45423;-77
2022/03/18 08:39:30;;;;;;;;;23.25;19.50;;;;;;;;5095961;27;46597;-78
2022/03/18 08:41:56;;;;;;;;;23.50;22.50;;;;;;;;5098558;27;45299;-78
2022/03/18 08:44:22;;;;;;;;;24.25;20.75;;;;;;;;5102080;27;47414;-78
2022/03/18 08:46:47;;;;;;;;;23.50;18.75;;;;;;;;5101656;27;45351;-78
2022/03/18 08:49:12;;;;;;;;;15.50;12.75;;;;;;;;5100899;27;45427;-77
2022/03/18 08:51:38;;;;;;;;;24.00;21.25;;;;;;;;5096336;27;45608;-77
2022/03/18 08:54:04;;;;;;;;;24.00;24.00;;;;;;;;5094942;27;45547;-78
2022/03/18 08:56:30;;;;;;;;;22.75;20.50;;;;;;;;5095152;27;45372;-79
2022/03/18 08:58:55;;;;;;;;;17.50;16.00;;;;;;;;5094007;27;45526;-79
2022/03/18 09:01:20;;;;;;;;;17.00;16.75;;;;;;;;5095477;27;45366;-79
2022/03/18 09:03:47;;;;;;;;;19.25;16.25;;;;;;;;5095457;27;45370;-79
2022/03/18 09:06:14;;;;;;;;;29.25;24.50;;;;;;;;5095765;27;45413;-79
2022/03/18 09:08:40;;;;;;;;;26.25;20.00;;;;;;;;5096405;27;45553;-78
2022/03/18 09:11:05;;;;;;;;;23.50;20.75;;;;;;;;5097052;27;45488;-80
2022/03/18 09:13:33;;;;;;;;;21.00;18.00;;;;;;;;5096325;27;45415;-78
2022/03/18 09:15:58;;;;;;;;;21.50;20.50;;;;;;;;5097033;27;45578;-79
2022/03/18 09:18:23;;;;;;;;;22.50;17.75;;;;;;;;5096238;27;46310;-79
2022/03/18 09:20:51;;;;;;;;;20.25;20.25;;;;;;;;5096559;27;45448;-79
2022/03/18 09:23:17;;;;;;;;;17.00;17.00;;;;;;;;5097315;27;45466;-79
2022/03/18 09:25:42;;;;;;;;;19.25;18.00;;;;;;;;5096760;27;45433;-79
2022/03/18 09:28:07;;;;;;;;;17.50;16.25;;;;;;;;5095233;27;47152;-78
2022/03/18 09:30:32;;;;;;;;;16.75;14.50;;;;;;;;5095240;27;45418;-79
2022/03/18 09:32:58;;;;;;;;;16.25;16.25;;;;;;;;5095389;27;45425;-79
2022/03/18 09:35:23;;;;;;;;;16.75;14.00;;;;;;;;5094858;27;45619;-78
2022/03/18 09:37:48;;;;;;;;;16.00;12.25;;;;;;;;5095573;27;46167;-77
2022/03/18 09:40:14;;;;;;;;;15.75;14.75;;;;;;;;5095254;27;45484;-77
2022/03/18 09:42:59;;;;;;;;;9.00;7.00;;;;;;;;5095610;27;45366;-78
2022/03/18 09:45:26;;;;;;;;;14.75;12.00;;;;;;;;5094705;27;45327;-79
2022/03/18 09:47:52;;;;;;;;;14.50;14.50;;;;;;;;5094405;27;46246;-79
2022/03/18 09:50:18;;;;;;;;;13.00;10.25;;;;;;;;5094475;27;45406;-80
2022/03/18 09:52:44;;;;;;;;;12.75;12.75;;;;;;;;5094520;27;45543;-79
2022/03/18 09:55:09;;;;;;;;;10.00;10.00;;;;;;;;5095338;27;45214;-79
2022/03/18 09:57:35;;;;;;;;;20.25;15.00;;;;;;;;5094066;27;45423;-78
2022/03/18 10:00:00;;;;;;;;;12.50;10.75;;;;;;;;5091877;27;45512;-77
2022/03/18 10:02:26;;;;;;;;;17.50;13.00;;;;;;;;5094600;27;45361;-79
2022/03/18 10:04:53;;;;;;;;;12.50;11.50;;;;;;;;5094316;27;45487;-80
2022/03/18 10:07:18;;;;;;;;;16.50;13.00;;;;;;;;5093998;27;45660;-80
2022/03/18 10:09:44;;;;;;;;;12.75;11.75;;;;;;;;5093494;27;45380;-80
2022/03/18 10:12:27;;;;;;;;;12.50;12.50;;;;;;;;5093683;27;45509;-80
2022/03/18 10:15:05;;;;;;;;;14.00;12.75;;;;;;;;5094519;27;45252;-78
2022/03/18 10:17:39;;;;;;;;;9.25;9.25;;;;;;;;5094216;27;45440;-78
2022/03/18 10:20:04;;;;;;;;;9.50;9.00;;;;;;;;5094130;27;45607;-77
2022/03/18 10:22:30;;;;;;;;;12.75;10.00;;;;;;;;5093943;27;45318;-78
2022/03/18 10:24:55;;;;;;;;;14.00;12.00;;;;;;;;5094457;27;45401;-79
2022/03/18 10:27:21;;;;;;;;;16.50;13.25;;;;;;;;5093306;27;45577;-79
2022/03/18 10:29:50;;;;;;;;;13.50;13.00;;;;;;;;5093461;27;45551;-78
2022/03/18 10:32:19;;;;;;;;;12.25;9.25;;;;;;;;5091192;27;45548;-79
2022/03/18 10:37:42;;;;;;;;;9.75;9.75;;;;;;;;5093596;27;45821;-78
2022/03/18 10:40:08;;;;;;;;;8.75;7.75;;;;;;;;5093783;27;45388;-77
2022/03/18 10:42:33;;;;;;;;;13.50;11.00;;;;;;;;5093389;27;45274;-79
2022/03/18 10:44:59;;;;;;;;;10.00;10.00;;;;;;;;5092938;27;45426;-78
2022/03/18 10:47:27;;;;;;;;;9.75;9.75;;;;;;;;5093416;27;46334;-78
2022/03/18 10:49:54;;;;;;;;;10.75;9.00;;;;;;;;5093409;27;45469;-78
2022/03/18 10:52:23;;;;;;;;;13.00;13.00;;;;;;;;5092335;27;45474;-78
2022/03/18 10:54:48;;;;;;;;;11.00;11.00;;;;;;;;5093200;27;45341;-78
2022/03/18 10:57:17;;;;;;;;;12.33;10.33;;;;;;;;5093018;27;45404;-78
2022/03/18 10:59:42;;;;;;;;;10.00;9.00;;;;;;;;5093294;27;45326;-79
2022/03/18 11:02:10;;;;;;;;;11.67;10.00;;;;;;;;5133979;22;46396;-78
2022/03/18 11:04:35;;;;;;;;;8.67;8.67;;;;;;;;5072763;27;45438;-78
2022/03/18 11:12:31;;;;;;;;;10.00;8.33;;;;;;;;5072602;28;45442;-79
2022/03/18 11:14:57;;;;;;;;;9.33;8.33;;;;;;;;5072269;28;45549;-80
2022/03/18 11:17:23;;;;;;;;;12.33;10.33;;;;;;;;5072081;27;46169;-80
2022/03/18 11:19:50;;;;;;;;;6.67;6.67;;;;;;;;5072970;28;45367;-80
2022/03/18 11:22:17;;;;;;;;;8.00;8.00;;;;;;;;5074435;27;45308;-79
2022/03/18 11:24:43;;;;;;;;;9.33;6.33;;;;;;;;5075531;28;45580;-78
2022/03/18 11:27:08;;;;;;;;;9.00;8.00;;;;;;;;5075333;27;45342;-79
2022/03/18 11:29:34;;;;;;;;;9.33;8.00;;;;;;;;5074931;27;45275;-78
2022/03/18 11:32:12;;;;;;;;;7.00;5.33;;;;;;;;5075373;27;45545;-78
2022/03/18 11:34:47;;;;;;;;;7.67;6.00;;;;;;;;5075775;28;45407;-78
2022/03/18 11:37:12;;;;;;;;;7.00;6.00;;;;;;;;5072613;27;45427;-77
2022/03/18 11:39:38;;;;;;;;;11.67;8.00;;;;;;;;5074425;27;45360;-78
2022/03/18 11:42:09;;;;;;;;;7.00;6.33;;;;;;;;5074434;28;45287;-78
2022/03/18 11:44:45;;;;;;;;;8.00;6.00;;;;;;;;5075292;27;45230;-78
2022/03/18 11:47:23;;;;;;;;;10.33;10.00;;;;;;;;5075168;28;45458;-78
2022/03/18 11:49:49;;;;;;;;;9.33;9.33;;;;;;;;5059953;28;45525;-78
2022/03/18 11:52:14;;;;;;;;;7.33;7.00;;;;;;;;5075637;27;45368;-80
2022/03/18 11:55:06;;;;;;;;;8.67;6.67;;;;;;;;5075225;28;45462;-79
2022/03/18 11:57:33;;;;;;;;;12.67;11.67;;;;;;;;5075244;28;46098;-78
2022/03/18 12:00:00;;;;;;;;;13.75;13.25;;;;;;;;5074630;27;45503;-79
2022/03/18 12:02:38;;;;;;;;;14.75;12.25;;;;;;;;5074912;28;45418;-78
2022/03/18 12:05:05;;;;;;;;;11.00;11.00;;;;;;;;5075407;27;45581;-81
2022/03/18 12:07:45;;;;;;;;;11.75;10.75;;;;;;;;5074884;28;45479;-80
2022/03/18 12:10:10;;;;;;;;;14.67;12.67;;;;;;;;5069790;27;45412;-78
2022/03/18 12:12:42;;;;;;;;;12.25;10.25;;;;;;;;5074530;28;45245;-81
2022/03/18 12:15:17;;;;;;;;;14.00;11.75;;;;;;;;5074398;28;45530;-80
2022/03/18 12:17:48;;;;;;;;;10.00;8.67;;;;;;;;5074857;28;45563;-79
2022/03/18 12:20:18;;;;;;;;;14.25;11.50;;;;;;;;5074779;28;45392;-79
2022/03/18 12:22:44;;;;;;;;;11.50;10.25;;;;;;;;5040853;28;45268;-79
2022/03/18 12:25:12;;;;;;;;;10.75;10.75;;;;;;;;5071649;28;45542;-80
2022/03/18 12:27:39;;;;;;;;;9.33;8.67;;;;;;;;5074247;28;45220;-79
2022/03/18 12:30:05;;;;;;;;;9.33;9.00;;;;;;;;5074092;28;45295;-79
2022/03/18 12:32:30;;;;;;;;;10.00;9.00;;;;;;;;5074576;28;45858;-80
2022/03/18 12:34:56;;;;;;;;;10.50;9.75;;;;;;;;5074666;28;45304;-81
2022/03/18 12:37:23;;;;;;;;;12.25;10.50;;;;;;;;5074327;28;45561;-81
2022/03/18 12:40:01;;;;;;;;;11.00;11.00;;;;;;;;5075084;28;45369;-81
2022/03/18 12:42:26;;;;;;;;;14.50;12.75;;;;;;;;5074262;28;45288;-81
2022/03/18 12:44:57;;;;;;;;;8.75;8.75;;;;;;;;5074337;28;45257;-81
2022/03/18 12:47:24;;;;;;;;;8.75;8.00;;;;;;;;5074447;28;46179;-80
2022/03/18 12:49:50;;;;;;;;;10.50;8.75;;;;;;;;5074503;28;45356;-81
2022/03/18 12:52:16;;;;;;;;;11.50;9.75;;;;;;;;5074232;28;45444;-79
2022/03/18 12:55:02;;;;;;;;;11.00;8.75;;;;;;;;5074087;28;45525;-80
2022/03/18 12:57:28;;;;;;;;;10.00;7.50;;;;;;;;5074020;28;47003;-80
2022/03/18 12:59:58;;;;;;;;;9.25;8.00;;;;;;;;5073981;28;45486;-81
2022/03/18 13:02:23;;;;;;;;;8.25;8.25;;;;;;;;5074504;28;45507;-81
2022/03/18 13:04:59;;;;;;;;;9.75;9.00;;;;;;;;5075538;28;45473;-81
2022/03/18 13:07:28;;;;;;;;;11.00;10.25;;;;;;;;5074662;28;45439;-80
2022/03/18 13:09:54;;;;;;;;;8.50;8.50;;;;;;;;5075116;28;45429;-81
2022/03/18 13:12:27;;;;;;;;;7.50;7.00;;;;;;;;5074661;28;45431;-81
2022/03/18 13:14:56;;;;;;;;;8.50;7.75;;;;;;;;5074070;28;45266;-82
2022/03/18 13:17:22;;;;;;;;;3.67;3.00;;;;;;;;5073554;28;46167;-81
2022/03/18 13:19:50;;;;;;;;;5.00;5.00;;;;;;;;5073719;28;45641;-80
2022/03/18 13:22:20;;;;;;;;;7.00;7.00;;;;;;;;5056217;28;45302;-81
2022/03/18 13:24:45;;;;;;;;;6.00;6.00;;;;;;;;5074348;28;45529;-82
2022/03/18 13:27:11;;;;;;;;;8.25;6.75;;;;;;;;5074428;28;45331;-82
2022/03/18 13:35:11;;;;;;;;;7.00;7.00;;;;;;;;5072937;28;45460;-80
2022/03/18 13:37:37;;;;;;;;;8.00;8.00;;;;;;;;5073038;28;47479;-81
2022/03/18 13:40:15;;;;;;;;;6.00;6.00;;;;;;;;5073936;28;45339;-81
2022/03/18 13:42:41;;;;;;;;;7.25;7.25;;;;;;;;5073973;28;45513;-80
2022/03/18 13:45:07;;;;;;;;;6.50;5.00;;;;;;;;5072957;28;45476;-81
2022/03/18 13:47:48;;;;;;;;;10.00;7.00;;;;;;;;5073060;28;46183;-81
2022/03/18 13:50:14;;;;;;;;;8.00;8.00;;;;;;;;5073184;28;45495;-81
2022/03/18 13:52:39;;;;;;;;;6.25;6.25;;;;;;;;5073157;28;45293;-81
2022/03/18 13:55:04;;;;;;;;;5.25;5.25;;;;;;;;5074198;28;45291;-81
2022/03/18 13:57:45;;;;;;;;;8.75;6.50;;;;;;;;5072877;28;45477;-82
2022/03/18 14:00:11;;;;;;;;;7.00;7.00;;;;;;;;5073426;28;45382;-82
2022/03/18 14:02:37;;;;;;;;;8.00;6.50;;;;;;;;5072617;28;45402;-82
2022/03/18 14:05:02;;;;;;;;;6.75;5.00;;;;;;;;5055167;28;45359;-81
2022/03/18 14:07:44;;;;;;;;;10.00;5.75;;;;;;;;5073060;28;46520;-83
2022/03/18 14:10:10;;;;;;;;;6.75;6.50;;;;;;;;5069868;28;45414;-80
2022/03/18 14:12:35;;;;;;;;;9.33;9.33;;;;;;;;5073273;28;45233;-81
2022/03/18 14:15:11;;;;;;;;;7.67;7.67;;;;;;;;5074149;28;45549;-79
2022/03/18 14:17:54;;;;;;;;;7.33;6.00;;;;;;;;5073157;28;46454;-81
2022/03/18 14:20:19;;;;;;;;;7.75;7.75;;;;;;;;5073908;28;45331;-81
2022/03/18 14:22:45;;;;;;;;;7.33;7.33;;;;;;;;5073897;28;45306;-82
2022/03/18 14:25:11;;;;;;;;;7.00;6.00;;;;;;;;5074252;28;45228;-81
2022/03/18 14:27:37;;;;;;;;;7.67;7.33;;;;;;;;5072906;28;45681;-82
2022/03/18 14:30:10;;;;;;;;;6.00;6.00;;;;;;;;5052522;28;45475;-84
2022/03/18 14:32:36;;;;;;;;;8.00;6.00;;;;;;;;5053671;28;45382;-84
2022/03/18 14:35:02;;;;;;;;;7.00;5.67;;;;;;;;5073802;28;45346;-83
2022/03/18 14:37:30;;;;;;;;;7.00;5.00;;;;;;;;5073695;28;47142;-83
2022/03/18 14:39:56;;;;;;;;;4.00;3.00;;;;;;;;5072899;28;45353;-84
2022/03/18 14:42:22;;;;;;;;;9.33;9.33;;;;;;;;5073006;28;45502;-82